sensor_id;sensor_type;location;lat;lon;timestamp;P1;durP1;ratioP1;P2;durP2;ratioP2
66353;SDS011;53150;48.296;16.452;2022-09-14T00:00:10;9.45;;;5.70;;
66353;SDS011;53150;48.296;16.452;2022-09-14T00:02:36;8.10;;;5.03;;
66353;SDS011;53150;48.296;16.452;2022-09-14T00:05:02;10.18;;;5.80;;
66353;SDS011;53150;48.296;16.452;2022-09-14T00:07:28;7.82;;;5.55;;
66353;SDS011;53150;48.296;16.452;2022-09-14T00:09:54;7.05;;;5.03;;
66353;SDS011;53150;48.296;16.452;2022-09-14T00:12:20;9.80;;;5.65;;
66353;SDS011;53150;48.296;16.452;2022-09-14T00:14:46;8.35;;;5.20;;
66353;SDS011;53150;48.296;16.452;2022-09-14T00:17:13;8.95;;;6.07;;
66353;SDS011;53150;48.296;16.452;2022-09-14T00:19:39;7.53;;;5.25;;
66353;SDS011;53150;48.296;16.452;2022-09-14T00:22:05;7.63;;;5.22;;
66353;SDS011;53150;48.296;16.452;2022-09-14T00:24:31;8.35;;;6.03;;
66353;SDS011;53150;48.296;16.452;2022-09-14T00:26:58;8.55;;;5.65;;
66353;SDS011;53150;48.296;16.452;2022-09-14T00:29:26;9.13;;;5.88;;
66353;SDS011;53150;48.296;16.452;2022-09-14T00:31:52;7.93;;;5.15;;
66353;SDS011;53150;48.296;16.452;2022-09-14T00:34:18;7.75;;;5.28;;
66353;SDS011;53150;48.296;16.452;2022-09-14T00:36:46;9.18;;;5.85;;
66353;SDS011;53150;48.296;16.452;2022-09-14T00:39:12;8.10;;;4.97;;
66353;SDS011;53150;48.296;16.452;2022-09-14T00:41:40;8.27;;;5.07;;
66353;SDS011;53150;48.296;16.452;2022-09-14T00:44:58;7.72;;;5.40;;
66353;SDS011;53150;48.296;16.452;2022-09-14T00:46:54;7.50;;;5.20;;
66353;SDS011;53150;48.296;16.452;2022-09-14T00:49:38;7.80;;;5.70;;
66353;SDS011;53150;48.296;16.452;2022-09-14T00:52:06;8.70;;;5.30;;
66353;SDS011;53150;48.296;16.452;2022-09-14T00:54:36;7.68;;;5.10;;
66353;SDS011;53150;48.296;16.452;2022-09-14T00:57:04;8.00;;;5.53;;
66353;SDS011;53150;48.296;16.452;2022-09-14T00:59:30;7.78;;;5.05;;
66353;SDS011;53150;48.296;16.452;2022-09-14T01:01:57;8.70;;;5.40;;
66353;SDS011;53150;48.296;16.452;2022-09-14T01:04:23;8.43;;;5.18;;
66353;SDS011;53150;48.296;16.452;2022-09-14T01:07:11;9.05;;;5.28;;
66353;SDS011;53150;48.296;16.452;2022-09-14T01:12:28;8.30;;;5.50;;
66353;SDS011;53150;48.296;16.452;2022-09-14T01:17:38;9.95;;;6.13;;
66353;SDS011;53150;48.296;16.452;2022-09-14T01:20:09;8.32;;;5.35;;
66353;SDS011;53150;48.296;16.452;2022-09-14T01:22:44;7.70;;;5.28;;
66353;SDS011;53150;48.296;16.452;2022-09-14T01:27:46;9.23;;;6.30;;
66353;SDS011;53150;48.296;16.452;2022-09-14T01:30:20;9.10;;;6.30;;
66353;SDS011;53150;48.296;16.452;2022-09-14T01:33:00;9.52;;;5.35;;
66353;SDS011;53150;48.296;16.452;2022-09-14T01:35:29;8.27;;;5.63;;
66353;SDS011;53150;48.296;16.452;2022-09-14T01:37:57;8.98;;;5.75;;
66353;SDS011;53150;48.296;16.452;2022-09-14T01:40:26;8.10;;;5.50;;
66353;SDS011;53150;48.296;16.452;2022-09-14T01:42:55;7.97;;;4.95;;
66353;SDS011;53150;48.296;16.452;2022-09-14T01:45:22;7.20;;;4.93;;
66353;SDS011;53150;48.296;16.452;2022-09-14T01:47:53;9.00;;;4.70;;
66353;SDS011;53150;48.296;16.452;2022-09-14T01:50:22;8.30;;;5.18;;
66353;SDS011;53150;48.296;16.452;2022-09-14T01:53:35;7.90;;;4.95;;
66353;SDS011;53150;48.296;16.452;2022-09-14T01:55:38;8.00;;;5.50;;
66353;SDS011;53150;48.296;16.452;2022-09-14T01:58:30;8.93;;;5.10;;
66353;SDS011;53150;48.296;16.452;2022-09-14T02:00:54;8.40;;;5.10;;
66353;SDS011;53150;48.296;16.452;2022-09-14T02:03:21;7.60;;;5.20;;
66353;SDS011;53150;48.296;16.452;2022-09-14T02:08:25;8.48;;;5.65;;
66353;SDS011;53150;48.296;16.452;2022-09-14T02:10:52;7.78;;;4.68;;
66353;SDS011;53150;48.296;16.452;2022-09-14T02:13:18;7.72;;;4.93;;
66353;SDS011;53150;48.296;16.452;2022-09-14T02:15:44;8.63;;;5.40;;
66353;SDS011;53150;48.296;16.452;2022-09-14T02:18:10;8.20;;;5.35;;
66353;SDS011;53150;48.296;16.452;2022-09-14T02:20:38;7.45;;;5.20;;
66353;SDS011;53150;48.296;16.452;2022-09-14T02:23:05;8.15;;;5.03;;
66353;SDS011;53150;48.296;16.452;2022-09-14T02:25:31;8.50;;;5.18;;
66353;SDS011;53150;48.296;16.452;2022-09-14T02:27:59;8.10;;;5.22;;
66353;SDS011;53150;48.296;16.452;2022-09-14T02:30:25;8.43;;;5.30;;
66353;SDS011;53150;48.296;16.452;2022-09-14T02:33:01;9.02;;;5.30;;
66353;SDS011;53150;48.296;16.452;2022-09-14T02:45:41;8.88;;;5.53;;
66353;SDS011;53150;48.296;16.452;2022-09-14T02:53:34;7.70;;;5.53;;
66353;SDS011;53150;48.296;16.452;2022-09-14T02:56:02;8.73;;;5.47;;
66353;SDS011;53150;48.296;16.452;2022-09-14T02:58:35;7.75;;;5.60;;
66353;SDS011;53150;48.296;16.452;2022-09-14T03:01:02;9.70;;;6.03;;
66353;SDS011;53150;48.296;16.452;2022-09-14T03:03:28;12.80;;;5.30;;
66353;SDS011;53150;48.296;16.452;2022-09-14T03:05:56;7.85;;;5.70;;
66353;SDS011;53150;48.296;16.452;2022-09-14T03:08:22;8.25;;;5.93;;
66353;SDS011;53150;48.296;16.452;2022-09-14T03:10:49;8.35;;;5.82;;
66353;SDS011;53150;48.296;16.452;2022-09-14T03:13:15;7.93;;;5.50;;
66353;SDS011;53150;48.296;16.452;2022-09-14T03:15:41;9.02;;;5.80;;
66353;SDS011;53150;48.296;16.452;2022-09-14T03:18:07;9.32;;;5.80;;
66353;SDS011;53150;48.296;16.452;2022-09-14T03:20:33;7.90;;;5.05;;
66353;SDS011;53150;48.296;16.452;2022-09-14T03:23:00;8.52;;;5.28;;
66353;SDS011;53150;48.296;16.452;2022-09-14T03:25:26;8.95;;;5.80;;
66353;SDS011;53150;48.296;16.452;2022-09-14T03:27:57;8.43;;;5.90;;
66353;SDS011;53150;48.296;16.452;2022-09-14T03:30:23;8.85;;;5.28;;
66353;SDS011;53150;48.296;16.452;2022-09-14T03:32:49;9.65;;;6.25;;
66353;SDS011;53150;48.296;16.452;2022-09-14T03:35:15;9.23;;;5.95;;
66353;SDS011;53150;48.296;16.452;2022-09-14T03:37:43;8.82;;;5.63;;
66353;SDS011;53150;48.296;16.452;2022-09-14T03:40:09;8.45;;;5.45;;
66353;SDS011;53150;48.296;16.452;2022-09-14T03:42:35;9.68;;;5.90;;
66353;SDS011;53150;48.296;16.452;2022-09-14T03:45:02;7.78;;;5.78;;
66353;SDS011;53150;48.296;16.452;2022-09-14T03:47:28;7.85;;;5.15;;
66353;SDS011;53150;48.296;16.452;2022-09-14T03:49:55;11.40;;;6.00;;
66353;SDS011;53150;48.296;16.452;2022-09-14T03:52:21;8.07;;;5.78;;
66353;SDS011;53150;48.296;16.452;2022-09-14T03:54:47;8.35;;;5.80;;
66353;SDS011;53150;48.296;16.452;2022-09-14T03:57:14;8.63;;;5.65;;
66353;SDS011;53150;48.296;16.452;2022-09-14T03:59:40;9.13;;;5.75;;
66353;SDS011;53150;48.296;16.452;2022-09-14T04:02:06;8.55;;;5.35;;
66353;SDS011;53150;48.296;16.452;2022-09-14T04:04:32;10.15;;;5.93;;
66353;SDS011;53150;48.296;16.452;2022-09-14T04:06:58;8.48;;;5.53;;
66353;SDS011;53150;48.296;16.452;2022-09-14T04:09:24;8.50;;;5.65;;
66353;SDS011;53150;48.296;16.452;2022-09-14T04:11:50;8.93;;;5.95;;
66353;SDS011;53150;48.296;16.452;2022-09-14T04:14:16;9.45;;;6.00;;
66353;SDS011;53150;48.296;16.452;2022-09-14T04:16:42;8.57;;;6.13;;
66353;SDS011;53150;48.296;16.452;2022-09-14T04:19:09;8.95;;;5.80;;
66353;SDS011;53150;48.296;16.452;2022-09-14T04:21:36;8.30;;;5.70;;
66353;SDS011;53150;48.296;16.452;2022-09-14T04:24:02;12.18;;;6.38;;
66353;SDS011;53150;48.296;16.452;2022-09-14T04:26:28;8.18;;;5.80;;
66353;SDS011;53150;48.296;16.452;2022-09-14T04:28:55;10.98;;;6.80;;
66353;SDS011;53150;48.296;16.452;2022-09-14T04:31:21;11.07;;;6.55;;
66353;SDS011;53150;48.296;16.452;2022-09-14T04:33:47;9.20;;;6.45;;
66353;SDS011;53150;48.296;16.452;2022-09-14T04:36:18;10.63;;;7.63;;
66353;SDS011;53150;48.296;16.452;2022-09-14T04:38:45;9.15;;;6.05;;
66353;SDS011;53150;48.296;16.452;2022-09-14T04:41:12;10.82;;;6.70;;
66353;SDS011;53150;48.296;16.452;2022-09-14T04:43:38;8.93;;;6.00;;
66353;SDS011;53150;48.296;16.452;2022-09-14T04:46:05;10.82;;;7.65;;
66353;SDS011;53150;48.296;16.452;2022-09-14T04:48:31;9.70;;;6.18;;
66353;SDS011;53150;48.296;16.452;2022-09-14T04:51:03;9.80;;;6.38;;
66353;SDS011;53150;48.296;16.452;2022-09-14T04:53:32;11.07;;;8.10;;
66353;SDS011;53150;48.296;16.452;2022-09-14T04:56:02;11.00;;;7.20;;
66353;SDS011;53150;48.296;16.452;2022-09-14T04:58:28;10.75;;;7.22;;
66353;SDS011;53150;48.296;16.452;2022-09-14T05:00:59;10.00;;;6.85;;
66353;SDS011;53150;48.296;16.452;2022-09-14T05:03:25;10.82;;;7.55;;
66353;SDS011;53150;48.296;16.452;2022-09-14T05:05:52;10.85;;;7.60;;
66353;SDS011;53150;48.296;16.452;2022-09-14T05:08:18;9.15;;;6.32;;
66353;SDS011;53150;48.296;16.452;2022-09-14T05:10:43;10.02;;;6.65;;
66353;SDS011;53150;48.296;16.452;2022-09-14T05:13:09;9.50;;;7.05;;
66353;SDS011;53150;48.296;16.452;2022-09-14T05:15:36;11.13;;;7.00;;
66353;SDS011;53150;48.296;16.452;2022-09-14T05:18:02;11.63;;;7.47;;
66353;SDS011;53150;48.296;16.452;2022-09-14T05:20:28;11.20;;;7.22;;
66353;SDS011;53150;48.296;16.452;2022-09-14T05:22:54;11.18;;;7.60;;
66353;SDS011;53150;48.296;16.452;2022-09-14T05:25:20;11.90;;;7.22;;
66353;SDS011;53150;48.296;16.452;2022-09-14T05:27:46;11.30;;;7.70;;
66353;SDS011;53150;48.296;16.452;2022-09-14T05:30:12;10.60;;;7.63;;
66353;SDS011;53150;48.296;16.452;2022-09-14T05:32:38;11.68;;;7.53;;
66353;SDS011;53150;48.296;16.452;2022-09-14T05:35:04;10.20;;;7.38;;
66353;SDS011;53150;48.296;16.452;2022-09-14T05:37:30;14.50;;;7.10;;
66353;SDS011;53150;48.296;16.452;2022-09-14T05:39:56;11.48;;;9.10;;
66353;SDS011;53150;48.296;16.452;2022-09-14T05:42:22;14.48;;;11.50;;
66353;SDS011;53150;48.296;16.452;2022-09-14T05:44:48;15.15;;;11.77;;
66353;SDS011;53150;48.296;16.452;2022-09-14T05:47:14;10.38;;;7.60;;
66353;SDS011;53150;48.296;16.452;2022-09-14T05:49:40;13.68;;;9.20;;
66353;SDS011;53150;48.296;16.452;2022-09-14T05:52:06;11.18;;;8.00;;
66353;SDS011;53150;48.296;16.452;2022-09-14T05:54:32;13.60;;;8.10;;
66353;SDS011;53150;48.296;16.452;2022-09-14T05:56:58;10.80;;;7.35;;
66353;SDS011;53150;48.296;16.452;2022-09-14T05:59:24;11.20;;;6.85;;
66353;SDS011;53150;48.296;16.452;2022-09-14T06:01:50;11.23;;;7.22;;
66353;SDS011;53150;48.296;16.452;2022-09-14T06:04:16;13.48;;;8.18;;
66353;SDS011;53150;48.296;16.452;2022-09-14T06:06:42;13.23;;;8.02;;
66353;SDS011;53150;48.296;16.452;2022-09-14T06:09:08;14.15;;;8.10;;
66353;SDS011;53150;48.296;16.452;2022-09-14T06:11:34;9.82;;;7.05;;
66353;SDS011;53150;48.296;16.452;2022-09-14T06:14:00;11.48;;;7.63;;
66353;SDS011;53150;48.296;16.452;2022-09-14T06:16:27;11.00;;;7.85;;
66353;SDS011;53150;48.296;16.452;2022-09-14T06:18:54;10.25;;;7.35;;
66353;SDS011;53150;48.296;16.452;2022-09-14T06:21:20;10.00;;;7.57;;
66353;SDS011;53150;48.296;16.452;2022-09-14T06:23:47;11.05;;;7.40;;
66353;SDS011;53150;48.296;16.452;2022-09-14T06:26:14;11.35;;;7.60;;
66353;SDS011;53150;48.296;16.452;2022-09-14T06:28:40;11.65;;;7.65;;
66353;SDS011;53150;48.296;16.452;2022-09-14T06:31:06;12.90;;;8.05;;
66353;SDS011;53150;48.296;16.452;2022-09-14T06:33:34;13.52;;;7.50;;
66353;SDS011;53150;48.296;16.452;2022-09-14T06:36:02;12.57;;;8.50;;
66353;SDS011;53150;48.296;16.452;2022-09-14T06:38:28;13.02;;;8.05;;
66353;SDS011;53150;48.296;16.452;2022-09-14T06:40:55;12.45;;;8.52;;
66353;SDS011;53150;48.296;16.452;2022-09-14T06:43:23;10.70;;;8.07;;
66353;SDS011;53150;48.296;16.452;2022-09-14T06:48:21;12.88;;;8.85;;
66353;SDS011;53150;48.296;16.452;2022-09-14T06:50:48;12.90;;;9.05;;
66353;SDS011;53150;48.296;16.452;2022-09-14T06:53:14;14.13;;;9.63;;
66353;SDS011;53150;48.296;16.452;2022-09-14T06:55:40;13.35;;;9.75;;
66353;SDS011;53150;48.296;16.452;2022-09-14T06:58:08;14.50;;;9.68;;
66353;SDS011;53150;48.296;16.452;2022-09-14T07:00:34;14.75;;;10.02;;
66353;SDS011;53150;48.296;16.452;2022-09-14T07:03:00;15.32;;;9.32;;
66353;SDS011;53150;48.296;16.452;2022-09-14T07:05:26;12.52;;;9.02;;
66353;SDS011;53150;48.296;16.452;2022-09-14T07:07:54;12.32;;;8.68;;
66353;SDS011;53150;48.296;16.452;2022-09-14T07:10:20;15.27;;;9.90;;
66353;SDS011;53150;48.296;16.452;2022-09-14T07:12:46;13.80;;;8.98;;
66353;SDS011;53150;48.296;16.452;2022-09-14T07:15:12;12.75;;;8.95;;
66353;SDS011;53150;48.296;16.452;2022-09-14T07:17:38;11.63;;;9.32;;
66353;SDS011;53150;48.296;16.452;2022-09-14T07:20:04;19.23;;;9.10;;
66353;SDS011;53150;48.296;16.452;2022-09-14T07:22:32;15.98;;;9.02;;
66353;SDS011;53150;48.296;16.452;2022-09-14T07:24:58;13.55;;;9.95;;
66353;SDS011;53150;48.296;16.452;2022-09-14T07:27:24;14.95;;;10.02;;
66353;SDS011;53150;48.296;16.452;2022-09-14T07:29:50;16.73;;;10.45;;
66353;SDS011;53150;48.296;16.452;2022-09-14T07:32:16;14.52;;;10.05;;
66353;SDS011;53150;48.296;16.452;2022-09-14T07:34:42;18.38;;;10.88;;
66353;SDS011;53150;48.296;16.452;2022-09-14T07:37:08;17.50;;;10.95;;
66353;SDS011;53150;48.296;16.452;2022-09-14T07:39:34;12.80;;;9.20;;
66353;SDS011;53150;48.296;16.452;2022-09-14T07:42:00;11.48;;;8.55;;
66353;SDS011;53150;48.296;16.452;2022-09-14T07:44:26;13.05;;;9.02;;
66353;SDS011;53150;48.296;16.452;2022-09-14T07:46:52;12.98;;;9.30;;
66353;SDS011;53150;48.296;16.452;2022-09-14T07:49:18;13.48;;;9.98;;
66353;SDS011;53150;48.296;16.452;2022-09-14T07:51:46;11.50;;;9.73;;
66353;SDS011;53150;48.296;16.452;2022-09-14T07:54:13;11.65;;;9.20;;
66353;SDS011;53150;48.296;16.452;2022-09-14T07:56:40;13.75;;;8.80;;
66353;SDS011;53150;48.296;16.452;2022-09-14T07:59:09;11.95;;;8.48;;
66353;SDS011;53150;48.296;16.452;2022-09-14T08:01:36;13.60;;;8.52;;
66353;SDS011;53150;48.296;16.452;2022-09-14T08:04:02;13.68;;;8.88;;
66353;SDS011;53150;48.296;16.452;2022-09-14T08:06:28;12.05;;;8.55;;
66353;SDS011;53150;48.296;16.452;2022-09-14T08:08:55;12.18;;;8.80;;
66353;SDS011;53150;48.296;16.452;2022-09-14T08:11:22;11.63;;;8.32;;
66353;SDS011;53150;48.296;16.452;2022-09-14T08:13:50;12.40;;;8.90;;
66353;SDS011;53150;48.296;16.452;2022-09-14T08:16:16;10.40;;;8.48;;
66353;SDS011;53150;48.296;16.452;2022-09-14T08:18:43;12.35;;;9.23;;
66353;SDS011;53150;48.296;16.452;2022-09-14T08:21:10;11.35;;;8.70;;
66353;SDS011;53150;48.296;16.452;2022-09-14T08:23:37;12.80;;;9.02;;
66353;SDS011;53150;48.296;16.452;2022-09-14T08:26:08;12.93;;;9.48;;
66353;SDS011;53150;48.296;16.452;2022-09-14T08:28:34;11.90;;;8.57;;
66353;SDS011;53150;48.296;16.452;2022-09-14T08:31:07;12.48;;;8.68;;
66353;SDS011;53150;48.296;16.452;2022-09-14T08:33:35;11.93;;;7.90;;
66353;SDS011;53150;48.296;16.452;2022-09-14T08:36:02;13.43;;;8.77;;
66353;SDS011;53150;48.296;16.452;2022-09-14T08:38:28;11.18;;;8.45;;
66353;SDS011;53150;48.296;16.452;2022-09-14T08:40:54;12.15;;;8.43;;
66353;SDS011;53150;48.296;16.452;2022-09-14T08:43:21;14.07;;;9.43;;
66353;SDS011;53150;48.296;16.452;2022-09-14T08:45:49;12.77;;;8.20;;
66353;SDS011;53150;48.296;16.452;2022-09-14T08:48:28;13.93;;;8.45;;
66353;SDS011;53150;48.296;16.452;2022-09-14T08:50:56;12.88;;;8.07;;
66353;SDS011;53150;48.296;16.452;2022-09-14T08:53:22;14.75;;;9.05;;
66353;SDS011;53150;48.296;16.452;2022-09-14T08:55:52;12.63;;;8.38;;
66353;SDS011;53150;48.296;16.452;2022-09-14T09:01:18;10.93;;;8.65;;
66353;SDS011;53150;48.296;16.452;2022-09-14T09:06:45;11.27;;;8.13;;
66353;SDS011;53150;48.296;16.452;2022-09-14T09:11:39;11.15;;;7.72;;
66353;SDS011;53150;48.296;16.452;2022-09-14T09:14:13;11.32;;;8.15;;
66353;SDS011;53150;48.296;16.452;2022-09-14T09:16:41;11.20;;;8.18;;
66353;SDS011;53150;48.296;16.452;2022-09-14T09:19:10;13.38;;;9.05;;
66353;SDS011;53150;48.296;16.452;2022-09-14T09:21:39;12.60;;;8.95;;
66353;SDS011;53150;48.296;16.452;2022-09-14T09:24:49;12.77;;;8.70;;
66353;SDS011;53150;48.296;16.452;2022-09-14T09:26:55;11.05;;;8.00;;
66353;SDS011;53150;48.296;16.452;2022-09-14T09:29:21;13.35;;;8.85;;
66353;SDS011;53150;48.296;16.452;2022-09-14T09:31:49;11.27;;;8.18;;
66353;SDS011;53150;48.296;16.452;2022-09-14T09:34:15;11.65;;;8.43;;
66353;SDS011;53150;48.296;16.452;2022-09-14T09:36:51;17.65;;;9.10;;
66353;SDS011;53150;48.296;16.452;2022-09-14T09:39:17;11.27;;;7.65;;
66353;SDS011;53150;48.296;16.452;2022-09-14T09:41:47;10.25;;;7.72;;
66353;SDS011;53150;48.296;16.452;2022-09-14T09:44:14;12.63;;;7.85;;
66353;SDS011;53150;48.296;16.452;2022-09-14T09:46:44;9.77;;;7.90;;
66353;SDS011;53150;48.296;16.452;2022-09-14T09:51:43;9.65;;;7.43;;
66353;SDS011;53150;48.296;16.452;2022-09-14T09:56:58;8.23;;;6.75;;
66353;SDS011;53150;48.296;16.452;2022-09-14T09:59:29;9.35;;;6.72;;
66353;SDS011;53150;48.296;16.452;2022-09-14T10:01:56;10.77;;;7.40;;
66353;SDS011;53150;48.296;16.452;2022-09-14T10:04:38;10.82;;;6.68;;
66353;SDS011;53150;48.296;16.452;2022-09-14T10:07:20;16.20;;;8.00;;
66353;SDS011;53150;48.296;16.452;2022-09-14T10:09:58;9.93;;;7.68;;
66353;SDS011;53150;48.296;16.452;2022-09-14T10:12:25;10.85;;;7.90;;
66353;SDS011;53150;48.296;16.452;2022-09-14T10:17:33;11.60;;;7.30;;
66353;SDS011;53150;48.296;16.452;2022-09-14T10:19:59;11.15;;;6.90;;
66353;SDS011;53150;48.296;16.452;2022-09-14T10:22:26;8.98;;;6.88;;
66353;SDS011;53150;48.296;16.452;2022-09-14T10:30:19;11.35;;;8.38;;
66353;SDS011;53150;48.296;16.452;2022-09-14T10:32:48;11.70;;;8.05;;
66353;SDS011;53150;48.296;16.452;2022-09-14T10:35:17;10.23;;;7.32;;
66353;SDS011;53150;48.296;16.452;2022-09-14T10:37:48;12.10;;;7.63;;
66353;SDS011;53150;48.296;16.452;2022-09-14T10:40:18;11.65;;;7.63;;
66353;SDS011;53150;48.296;16.452;2022-09-14T10:42:57;11.10;;;8.43;;
66353;SDS011;53150;48.296;16.452;2022-09-14T10:45:33;12.63;;;8.20;;
66353;SDS011;53150;48.296;16.452;2022-09-14T10:48:19;11.13;;;8.50;;
66353;SDS011;53150;48.296;16.452;2022-09-14T11:04:17;16.50;;;11.55;;
66353;SDS011;53150;48.296;16.452;2022-09-14T11:07:19;14.18;;;10.38;;
66353;SDS011;53150;48.296;16.452;2022-09-14T11:09:43;13.05;;;9.07;;
66353;SDS011;53150;48.296;16.452;2022-09-14T11:24:53;20.10;;;13.10;;
66353;SDS011;53150;48.296;16.452;2022-09-14T11:27:25;18.02;;;13.55;;
66353;SDS011;53150;48.296;16.452;2022-09-14T11:37:40;17.52;;;14.05;;
66353;SDS011;53150;48.296;16.452;2022-09-14T11:40:15;17.40;;;14.15;;
66353;SDS011;53150;48.296;16.452;2022-09-14T11:42:44;18.58;;;15.93;;
66353;SDS011;53150;48.296;16.452;2022-09-14T11:45:19;19.55;;;15.27;;
66353;SDS011;53150;48.296;16.452;2022-09-14T11:47:49;19.08;;;14.00;;
66353;SDS011;53150;48.296;16.452;2022-09-14T11:50:21;17.15;;;14.35;;
66353;SDS011;53150;48.296;16.452;2022-09-14T11:52:48;14.75;;;12.40;;
66353;SDS011;53150;48.296;16.452;2022-09-14T11:55:19;16.57;;;13.00;;
66353;SDS011;53150;48.296;16.452;2022-09-14T11:57:45;15.50;;;13.20;;
66353;SDS011;53150;48.296;16.452;2022-09-14T12:05:32;14.48;;;12.82;;
66353;SDS011;53150;48.296;16.452;2022-09-14T12:08:00;17.40;;;12.68;;
66353;SDS011;53150;48.296;16.452;2022-09-14T12:10:29;16.63;;;13.32;;
66353;SDS011;53150;48.296;16.452;2022-09-14T12:15:31;15.50;;;13.85;;
66353;SDS011;53150;48.296;16.452;2022-09-14T12:20:28;14.27;;;11.63;;
66353;SDS011;53150;48.296;16.452;2022-09-14T12:23:03;15.68;;;12.43;;
66353;SDS011;53150;48.296;16.452;2022-09-14T12:25:29;13.18;;;10.52;;
66353;SDS011;53150;48.296;16.452;2022-09-14T12:27:55;12.10;;;10.80;;
66353;SDS011;53150;48.296;16.452;2022-09-14T12:58:55;10.70;;;8.00;;
66353;SDS011;53150;48.296;16.452;2022-09-14T13:04:16;9.25;;;7.95;;
66353;SDS011;53150;48.296;16.452;2022-09-14T13:06:44;9.80;;;7.88;;
66353;SDS011;53150;48.296;16.452;2022-09-14T13:09:24;12.10;;;8.00;;
66353;SDS011;53150;48.296;16.452;2022-09-14T13:14:24;11.15;;;9.02;;
66353;SDS011;53150;48.296;16.452;2022-09-14T13:16:51;11.35;;;8.45;;
66353;SDS011;53150;48.296;16.452;2022-09-14T13:19:20;10.40;;;8.43;;
66353;SDS011;53150;48.296;16.452;2022-09-14T13:21:46;10.05;;;7.93;;
66353;SDS011;53150;48.296;16.452;2022-09-14T13:27:14;10.32;;;8.07;;
66353;SDS011;53150;48.296;16.452;2022-09-14T13:29:42;10.45;;;7.47;;
66353;SDS011;53150;48.296;16.452;2022-09-14T13:32:09;8.80;;;7.53;;
66353;SDS011;53150;48.296;16.452;2022-09-14T13:34:37;11.45;;;8.43;;
66353;SDS011;53150;48.296;16.452;2022-09-14T13:37:03;9.75;;;7.90;;
66353;SDS011;53150;48.296;16.452;2022-09-14T13:39:34;10.57;;;7.88;;
66353;SDS011;53150;48.296;16.452;2022-09-14T13:42:01;9.18;;;8.07;;
66353;SDS011;53150;48.296;16.452;2022-09-14T13:44:48;10.00;;;8.35;;
66353;SDS011;53150;48.296;16.452;2022-09-14T13:47:16;8.27;;;7.47;;
66353;SDS011;53150;48.296;16.452;2022-09-14T13:49:44;9.45;;;7.57;;
66353;SDS011;53150;48.296;16.452;2022-09-14T13:52:17;8.88;;;7.90;;
66353;SDS011;53150;48.296;16.452;2022-09-14T13:54:44;9.15;;;7.80;;
66353;SDS011;53150;48.296;16.452;2022-09-14T13:57:11;8.68;;;7.38;;
66353;SDS011;53150;48.296;16.452;2022-09-14T14:02:23;8.65;;;7.57;;
66353;SDS011;53150;48.296;16.452;2022-09-14T14:04:51;7.60;;;6.53;;
66353;SDS011;53150;48.296;16.452;2022-09-14T14:07:18;8.27;;;7.15;;
66353;SDS011;53150;48.296;16.452;2022-09-14T14:09:52;8.93;;;6.20;;
66353;SDS011;53150;48.296;16.452;2022-09-14T14:12:29;9.65;;;7.53;;
66353;SDS011;53150;48.296;16.452;2022-09-14T14:14:59;8.18;;;6.68;;
66353;SDS011;53150;48.296;16.452;2022-09-14T14:19:55;8.77;;;6.57;;
66353;SDS011;53150;48.296;16.452;2022-09-14T14:24:50;10.77;;;6.03;;
66353;SDS011;53150;48.296;16.452;2022-09-14T14:29:55;8.18;;;5.88;;
66353;SDS011;53150;48.296;16.452;2022-09-14T14:32:21;8.90;;;5.80;;
66353;SDS011;53150;48.296;16.452;2022-09-14T14:34:48;8.80;;;5.55;;
66353;SDS011;53150;48.296;16.452;2022-09-14T14:37:14;6.88;;;5.45;;
66353;SDS011;53150;48.296;16.452;2022-09-14T14:39:40;9.93;;;6.30;;
66353;SDS011;53150;48.296;16.452;2022-09-14T14:42:08;9.07;;;6.25;;
66353;SDS011;53150;48.296;16.452;2022-09-14T14:44:34;8.80;;;6.13;;
66353;SDS011;53150;48.296;16.452;2022-09-14T14:47:00;9.75;;;5.95;;
66353;SDS011;53150;48.296;16.452;2022-09-14T14:49:26;9.38;;;5.60;;
66353;SDS011;53150;48.296;16.452;2022-09-14T14:51:52;8.10;;;6.05;;
66353;SDS011;53150;48.296;16.452;2022-09-14T14:54:19;8.25;;;5.55;;
66353;SDS011;53150;48.296;16.452;2022-09-14T14:56:45;8.15;;;6.32;;
66353;SDS011;53150;48.296;16.452;2022-09-14T15:01:47;10.07;;;5.60;;
66353;SDS011;53150;48.296;16.452;2022-09-14T15:04:13;9.55;;;5.47;;
66353;SDS011;53150;48.296;16.452;2022-09-14T15:06:42;7.20;;;5.18;;
66353;SDS011;53150;48.296;16.452;2022-09-14T15:09:21;6.55;;;4.80;;
66353;SDS011;53150;48.296;16.452;2022-09-14T15:11:48;7.28;;;4.95;;
66353;SDS011;53150;48.296;16.452;2022-09-14T15:14:16;6.95;;;4.82;;
66353;SDS011;53150;48.296;16.452;2022-09-14T15:16:42;7.07;;;5.00;;
66353;SDS011;53150;48.296;16.452;2022-09-14T15:19:09;6.55;;;4.43;;
66353;SDS011;53150;48.296;16.452;2022-09-14T15:21:37;6.90;;;4.80;;
66353;SDS011;53150;48.296;16.452;2022-09-14T15:24:04;8.73;;;5.10;;
66353;SDS011;53150;48.296;16.452;2022-09-14T15:26:30;6.78;;;4.15;;
66353;SDS011;53150;48.296;16.452;2022-09-14T15:28:57;9.40;;;5.07;;
66353;SDS011;53150;48.296;16.452;2022-09-14T15:31:23;7.93;;;5.07;;
66353;SDS011;53150;48.296;16.452;2022-09-14T15:33:49;9.88;;;4.60;;
66353;SDS011;53150;48.296;16.452;2022-09-14T15:39:00;12.05;;;5.38;;
66353;SDS011;53150;48.296;16.452;2022-09-14T15:41:26;8.43;;;5.13;;
66353;SDS011;53150;48.296;16.452;2022-09-14T15:43:55;7.22;;;4.90;;
66353;SDS011;53150;48.296;16.452;2022-09-14T15:46:21;6.68;;;4.50;;
66353;SDS011;53150;48.296;16.452;2022-09-14T15:48:47;10.10;;;4.28;;
66353;SDS011;53150;48.296;16.452;2022-09-14T15:51:13;8.73;;;4.50;;
66353;SDS011;53150;48.296;16.452;2022-09-14T15:53:39;8.18;;;4.45;;
66353;SDS011;53150;48.296;16.452;2022-09-14T15:56:08;7.53;;;4.32;;
66353;SDS011;53150;48.296;16.452;2022-09-14T15:58:35;6.10;;;4.13;;
66353;SDS011;53150;48.296;16.452;2022-09-14T16:01:11;6.90;;;4.15;;
66353;SDS011;53150;48.296;16.452;2022-09-14T16:03:37;7.63;;;4.93;;
66353;SDS011;53150;48.296;16.452;2022-09-14T16:06:07;8.23;;;4.20;;
66353;SDS011;53150;48.296;16.452;2022-09-14T16:08:34;7.22;;;4.60;;
66353;SDS011;53150;48.296;16.452;2022-09-14T16:11:01;6.60;;;4.43;;
66353;SDS011;53150;48.296;16.452;2022-09-14T16:13:27;7.50;;;5.15;;
66353;SDS011;53150;48.296;16.452;2022-09-14T16:16:03;6.95;;;4.70;;
66353;SDS011;53150;48.296;16.452;2022-09-14T16:18:29;6.72;;;5.28;;
66353;SDS011;53150;48.296;16.452;2022-09-14T16:20:55;7.07;;;4.88;;
66353;SDS011;53150;48.296;16.452;2022-09-14T16:23:22;6.50;;;4.95;;
66353;SDS011;53150;48.296;16.452;2022-09-14T16:25:49;7.53;;;4.88;;
66353;SDS011;53150;48.296;16.452;2022-09-14T16:28:15;6.22;;;4.65;;
66353;SDS011;53150;48.296;16.452;2022-09-14T16:30:43;8.30;;;5.53;;
66353;SDS011;53150;48.296;16.452;2022-09-14T16:33:09;8.57;;;5.90;;
66353;SDS011;53150;48.296;16.452;2022-09-14T16:35:36;9.02;;;5.22;;
66353;SDS011;53150;48.296;16.452;2022-09-14T16:38:01;8.50;;;5.15;;
66353;SDS011;53150;48.296;16.452;2022-09-14T16:40:28;9.18;;;5.57;;
66353;SDS011;53150;48.296;16.452;2022-09-14T16:42:55;9.32;;;5.18;;
66353;SDS011;53150;48.296;16.452;2022-09-14T16:45:21;10.00;;;5.70;;
66353;SDS011;53150;48.296;16.452;2022-09-14T16:47:47;8.18;;;5.28;;
66353;SDS011;53150;48.296;16.452;2022-09-14T16:50:14;9.35;;;5.10;;
66353;SDS011;53150;48.296;16.452;2022-09-14T16:52:40;7.53;;;5.00;;
66353;SDS011;53150;48.296;16.452;2022-09-14T16:55:06;7.88;;;5.40;;
66353;SDS011;53150;48.296;16.452;2022-09-14T16:57:32;7.70;;;5.50;;